Terminal Aerodrome Forecast
Issued by NWS

Home | Current Version | Previous Version | Text Only | Print | Product List | Glossary On
Versions: 1 2 3 4 5 6 7 8 9 10 11 12 13 14 15 16 17 18 19 20 21 22 23 24 25 26 27 28
000
FTUS45 KGJT 310520
TAFMTJ
TAF
KMTJ 310520Z 3106/0106 15010KT P6SM SCT150
     FM311300 17010KT P6SM SCT150
     FM311800 24020G30KT P6SM SCT110 SCT150
     FM010200 22008KT P6SM FEW120=

USA.gov is the U.S. government's official web portal to all federal, state and local government web resources and services.